Arkansaw, Wisconsin
Current Conditions -  °F | °C
As of 10:35 PM on Wednesday 26 Nov 2014 (Local Time) from KLUM Reporting Station
Haze Haze  
Wind Chill: -13°   Ceiling: 3600
Heat Index: -7°   Visibility: 5mi
Dew Point: -10°   Wind: 9mph
Humidity: 78%   Direction: 330°NNW
Pressure: 30.31"   Gusts: NA
Location:  44.63°N, 92.03°W
Report Text: KLUM 270435Z AUTO 33008KT 5SM HZ SCT027 BKN036 OVC110 M07/M10 A3031 RMK AO2 T10681101
Loading
Personal Weather Stations






























Interactive Weather Map New forecast layout! Learn more

10-Day Weather Forecast

Advertisements
Track Severe Weather on mobile